createdAt,value
2022-09-09T00:04:38.492Z,14.74
2022-09-09T00:09:42.661Z,14.61
2022-09-09T00:14:46.833Z,14.55
2022-09-09T00:19:49.083Z,14.53
2022-09-09T00:24:53.250Z,14.54
2022-09-09T00:29:55.478Z,14.51
2022-09-09T00:34:59.691Z,14.49
2022-09-09T00:40:03.909Z,14.45
2022-09-09T00:45:07.973Z,14.39
2022-09-09T00:50:12.117Z,14.43
2022-09-09T00:55:16.329Z,14.48
2022-09-09T01:00:20.447Z,14.43
2022-09-09T01:05:24.626Z,14.33
2022-09-09T01:10:28.766Z,14.24
2022-09-09T01:15:32.944Z,14.14
2022-09-09T01:20:37.089Z,14.02
2022-09-09T01:25:41.283Z,13.98
2022-09-09T01:30:45.465Z,13.95
2022-09-09T01:35:49.597Z,13.97
2022-09-09T01:40:53.719Z,14.12
2022-09-09T01:45:57.912Z,14.25
2022-09-09T01:51:02.054Z,14.39
2022-09-09T01:56:06.253Z,14.42
2022-09-09T02:01:10.463Z,14.39
2022-09-09T02:06:14.532Z,14.45
2022-09-09T02:11:18.706Z,14.48
2022-09-09T02:16:21.044Z,14.46
2022-09-09T02:21:25.127Z,14.49
2022-09-09T02:26:29.276Z,14.51
2022-09-09T02:31:33.451Z,14.54
2022-09-09T02:36:37.615Z,14.60
2022-09-09T02:41:41.762Z,14.64
2022-09-09T02:46:45.950Z,14.64
2022-09-09T02:51:50.067Z,14.58
2022-09-09T03:01:58.471Z,14.48
2022-09-09T03:07:02.551Z,14.38
2022-09-09T03:12:06.730Z,14.42
2022-09-09T03:17:10.910Z,14.47
2022-09-09T03:22:15.083Z,14.43
2022-09-09T03:27:19.208Z,14.45
2022-09-09T03:32:23.386Z,14.42
2022-09-09T03:37:27.510Z,14.37
2022-09-09T03:42:31.729Z,14.35
2022-09-09T03:47:35.830Z,14.36
2022-09-09T03:52:40.004Z,14.40
2022-09-09T03:57:44.176Z,14.38
2022-09-09T04:02:48.326Z,14.42
2022-09-09T04:07:50.599Z,14.45
2022-09-09T04:12:54.776Z,14.51
2022-09-09T04:17:57.068Z,14.59
2022-09-09T04:23:01.222Z,14.69
2022-09-09T04:28:03.448Z,14.75
2022-09-09T04:33:07.628Z,14.78
2022-09-09T04:38:11.794Z,14.81
2022-09-09T04:43:15.951Z,14.77
2022-09-09T04:48:20.094Z,14.71
2022-09-09T04:53:24.242Z,14.69
2022-09-09T04:58:28.520Z,14.69
2022-09-09T05:03:32.601Z,14.71
2022-09-09T05:08:36.849Z,14.74
2022-09-09T05:13:41.532Z,14.76
2022-09-09T05:18:45.082Z,14.82
2022-09-09T05:23:49.241Z,14.86
2022-09-09T05:28:53.392Z,14.96
2022-09-09T05:33:57.561Z,15.01
2022-09-09T05:39:01.687Z,14.98
2022-09-09T05:44:05.896Z,15.01
2022-09-09T05:49:10.037Z,15.08
2022-09-09T05:54:14.195Z,15.15
2022-09-09T05:59:18.339Z,15.19
2022-09-09T06:04:22.540Z,15.26
2022-09-09T06:09:26.628Z,15.34
2022-09-09T06:14:28.940Z,15.39
2022-09-09T06:19:33.090Z,15.50
2022-09-09T06:24:35.384Z,15.58
2022-09-09T06:29:39.501Z,15.69
2022-09-09T06:34:41.811Z,15.82
2022-09-09T06:39:45.948Z,15.92
2022-09-09T06:44:50.120Z,15.99
2022-09-09T06:49:54.239Z,16.09
2022-09-09T06:54:58.448Z,16.20
2022-09-09T07:00:02.617Z,16.30
2022-09-09T07:05:06.804Z,16.37
2022-09-09T07:10:10.929Z,16.32
2022-09-09T07:15:15.089Z,16.21
2022-09-09T07:20:19.233Z,16.44
2022-09-09T07:25:23.434Z,16.98
2022-09-09T07:30:28.060Z,17.11
2022-09-09T07:35:31.710Z,17.11
2022-09-09T07:40:35.882Z,16.88
2022-09-09T07:45:40.067Z,16.86
2022-09-09T07:50:44.172Z,16.90
2022-09-09T07:55:48.357Z,16.91
2022-09-09T08:00:53.648Z,17.19
2022-09-09T08:05:56.669Z,17.38
2022-09-09T08:11:00.816Z,17.39
2022-09-09T08:16:05.017Z,17.37
2022-09-09T08:21:07.257Z,17.46
2022-09-09T08:26:11.448Z,17.57
2022-09-09T08:31:15.645Z,17.76
2022-09-09T08:36:19.732Z,18.09
2022-09-09T08:41:23.870Z,18.20
2022-09-09T08:46:28.178Z,18.30
2022-09-09T08:51:32.197Z,18.45
2022-09-09T08:56:36.414Z,18.46
2022-09-09T09:01:40.585Z,18.61
2022-09-09T09:06:44.707Z,19.07
2022-09-09T09:11:48.861Z,19.48
2022-09-09T09:16:52.981Z,19.51
2022-09-09T09:21:57.179Z,19.76
2022-09-09T09:27:01.377Z,19.49
2022-09-09T09:32:05.497Z,19.32
2022-09-09T09:37:09.628Z,19.22
2022-09-09T09:42:13.803Z,19.31
2022-09-09T09:47:17.981Z,19.50
2022-09-09T09:52:22.123Z,19.38
2022-09-09T09:57:26.291Z,19.06
2022-09-09T10:02:30.460Z,18.88
2022-09-09T10:07:32.712Z,19.59
2022-09-09T10:12:36.846Z,19.74
2022-09-09T10:17:39.162Z,19.73
2022-09-09T10:22:43.293Z,19.79
2022-09-09T10:27:45.589Z,19.96
2022-09-09T10:32:49.720Z,20.03
2022-09-09T10:37:53.860Z,20.16
2022-09-09T10:42:58.048Z,20.27
2022-09-09T10:48:02.185Z,20.37
2022-09-09T10:53:06.386Z,20.46
2022-09-09T10:58:10.534Z,20.64
2022-09-09T11:03:14.708Z,20.50
2022-09-09T11:08:18.999Z,20.73
2022-09-09T11:13:22.985Z,21.32
2022-09-09T11:18:27.172Z,21.25
2022-09-09T11:23:31.333Z,21.60
2022-09-09T11:28:35.562Z,21.48
2022-09-09T11:33:39.646Z,21.27
2022-09-09T11:38:43.802Z,21.25
2022-09-09T11:43:48.112Z,21.12
2022-09-09T11:48:52.144Z,21.11
2022-09-09T11:53:54.400Z,20.91
2022-09-09T11:58:58.538Z,20.56
2022-09-09T12:04:02.737Z,20.20
2022-09-09T12:09:06.961Z,20.10
2022-09-09T12:14:09.148Z,19.91
2022-09-09T12:19:13.271Z,19.56
2022-09-09T12:24:15.547Z,18.75
2022-09-09T12:29:19.752Z,18.46
2022-09-09T12:34:23.847Z,18.89
2022-09-09T12:39:28.097Z,18.91
2022-09-09T12:44:32.169Z,18.93
2022-09-09T12:49:36.375Z,19.00
2022-09-09T12:54:40.525Z,18.84
2022-09-09T12:59:44.696Z,18.83
2022-09-09T13:04:48.844Z,18.99
2022-09-09T13:09:53.025Z,19.17
2022-09-09T13:14:57.141Z,19.71
2022-09-09T13:20:01.378Z,20.01
2022-09-09T13:25:05.462Z,19.92
2022-09-09T13:30:09.620Z,20.23
2022-09-09T13:35:13.776Z,20.17
2022-09-09T13:40:17.945Z,19.94
2022-09-09T13:45:22.113Z,19.60
2022-09-09T13:50:26.285Z,18.86
2022-09-09T13:55:30.426Z,18.18
2022-09-09T14:00:34.559Z,17.83
2022-09-09T14:05:38.727Z,17.86
2022-09-09T14:10:41.029Z,18.09
2022-09-09T14:15:45.230Z,18.93
2022-09-09T14:20:47.452Z,19.09
2022-09-09T14:25:53.135Z,19.89
2022-09-09T14:30:55.793Z,19.81
2022-09-09T14:35:59.896Z,19.45
2022-09-09T14:41:04.077Z,19.21
2022-09-09T14:46:08.295Z,18.96
2022-09-09T14:51:14.690Z,18.88
2022-09-09T14:56:16.567Z,18.57
2022-09-09T15:01:20.735Z,18.61
2022-09-09T15:06:24.880Z,18.98
2022-09-09T15:11:29.050Z,18.82
2022-09-09T15:16:33.208Z,18.75
2022-09-09T15:21:37.344Z,18.27
2022-09-09T15:26:41.551Z,18.00
2022-09-09T15:31:45.683Z,17.86
2022-09-09T15:36:49.848Z,17.22
2022-09-09T15:41:53.987Z,16.58
2022-09-09T15:46:58.104Z,16.35
2022-09-09T15:52:02.336Z,16.06
2022-09-09T15:57:06.456Z,15.92
2022-09-09T16:02:10.774Z,15.83
2022-09-09T16:07:12.897Z,15.65
2022-09-09T16:12:17.073Z,15.52
2022-09-09T16:17:21.205Z,15.43
2022-09-09T16:22:25.369Z,15.45
2022-09-09T16:27:29.533Z,15.58
2022-09-09T16:32:33.669Z,15.53
2022-09-09T16:37:37.821Z,15.59
2022-09-09T16:42:42.002Z,15.61
2022-09-09T16:47:46.144Z,15.52
2022-09-09T16:52:50.365Z,15.42
2022-09-09T16:57:54.512Z,15.24
2022-09-09T17:02:58.691Z,15.29
2022-09-09T17:08:02.798Z,15.44
2022-09-09T17:13:06.960Z,15.46
2022-09-09T17:18:11.126Z,15.48
2022-09-09T17:23:15.302Z,15.41
2022-09-09T17:28:19.438Z,15.41
2022-09-09T17:33:23.647Z,15.42
2022-09-09T17:38:28.824Z,15.46
2022-09-09T17:43:31.909Z,15.47
2022-09-09T17:48:36.067Z,15.47
2022-09-09T17:53:38.339Z,15.52
2022-09-09T17:58:42.516Z,15.45
2022-09-09T18:03:46.671Z,15.41
2022-09-09T18:08:50.814Z,15.40
2022-09-09T18:13:55.018Z,15.31
2022-09-09T18:18:59.125Z,15.31
2022-09-09T18:24:03.284Z,15.32
2022-09-09T18:29:07.457Z,15.34
2022-09-09T18:34:11.666Z,15.37
2022-09-09T18:39:15.777Z,15.39
2022-09-09T18:44:20.001Z,15.37
2022-09-09T18:49:24.114Z,15.36
2022-09-09T18:54:28.271Z,15.37
2022-09-09T18:59:32.457Z,15.32
2022-09-09T19:04:36.594Z,15.32
2022-09-09T19:09:40.727Z,15.31
2022-09-09T19:14:44.894Z,15.30
2022-09-09T19:19:49.041Z,15.32
2022-09-09T19:24:53.224Z,15.32
2022-09-09T19:29:57.385Z,15.30
2022-09-09T19:35:01.525Z,15.27
2022-09-09T19:40:03.810Z,15.24
2022-09-09T19:45:07.993Z,15.19
2022-09-09T19:50:12.107Z,15.19
2022-09-09T19:55:16.340Z,15.22
2022-09-09T20:00:20.424Z,15.20
2022-09-09T20:05:24.610Z,15.17
2022-09-09T20:10:28.767Z,15.16
2022-09-09T20:15:33.051Z,15.18
2022-09-09T20:20:37.109Z,15.21
2022-09-09T20:25:41.249Z,15.23
2022-09-09T20:30:45.608Z,15.22
2022-09-09T20:35:49.598Z,15.25
2022-09-09T20:40:53.712Z,15.26
2022-09-09T20:45:57.973Z,15.27
2022-09-09T20:51:02.070Z,15.28
2022-09-09T20:56:06.230Z,15.32
2022-09-09T21:01:10.457Z,15.35
2022-09-09T21:06:14.528Z,15.41
2022-09-09T21:11:18.696Z,15.39
2022-09-09T21:16:22.885Z,15.34
2022-09-09T21:21:27.061Z,15.36
2022-09-09T21:26:29.289Z,15.38
2022-09-09T21:31:33.589Z,15.35
2022-09-09T21:36:35.732Z,15.27
2022-09-09T21:41:39.893Z,15.26
2022-09-09T21:46:42.201Z,15.27
2022-09-09T21:51:46.328Z,15.27
2022-09-09T21:56:48.605Z,15.28
2022-09-09T22:01:52.777Z,15.30
2022-09-09T22:06:56.908Z,15.29
2022-09-09T22:12:01.062Z,15.27
2022-09-09T22:22:09.717Z,15.15
2022-09-09T22:32:17.809Z,15.05
2022-09-09T22:37:21.863Z,14.99
2022-09-09T22:42:26.018Z,14.96
2022-09-09T22:47:30.208Z,14.90
2022-09-09T22:52:34.382Z,14.84
2022-09-09T22:57:38.491Z,14.85
2022-09-09T23:02:42.666Z,14.79
2022-09-09T23:07:46.848Z,14.77
2022-09-09T23:12:50.962Z,14.70
2022-09-09T23:17:55.158Z,14.67
2022-09-09T23:22:59.302Z,14.64
2022-09-09T23:28:03.478Z,14.63
2022-09-09T23:33:07.614Z,14.69
2022-09-09T23:38:11.816Z,14.75
2022-09-09T23:43:14.024Z,14.77
2022-09-09T23:48:18.213Z,14.79
2022-09-09T23:53:20.493Z,14.89
2022-09-09T23:58:24.667Z,14.93
